sensor_id;sensor_type;location;lat;lon;timestamp;P1;durP1;ratioP1;P2;durP2;ratioP2
29824;SDS011;16713;52.916;12.834;2023-09-07T00:02:00;5.45;;;4.25;;
29824;SDS011;16713;52.916;12.834;2023-09-07T00:04:27;5.72;;;4.15;;
29824;SDS011;16713;52.916;12.834;2023-09-07T00:06:53;4.68;;;4.00;;
29824;SDS011;16713;52.916;12.834;2023-09-07T00:09:20;6.50;;;4.63;;
29824;SDS011;16713;52.916;12.834;2023-09-07T00:11:48;5.13;;;4.63;;
29824;SDS011;16713;52.916;12.834;2023-09-07T00:14:15;5.07;;;4.57;;
29824;SDS011;16713;52.916;12.834;2023-09-07T00:16:41;5.18;;;4.40;;
29824;SDS011;16713;52.916;12.834;2023-09-07T00:19:08;5.25;;;4.75;;
29824;SDS011;16713;52.916;12.834;2023-09-07T00:21:34;7.82;;;4.78;;
29824;SDS011;16713;52.916;12.834;2023-09-07T00:24:01;8.27;;;4.13;;
29824;SDS011;16713;52.916;12.834;2023-09-07T00:26:31;5.05;;;4.55;;
29824;SDS011;16713;52.916;12.834;2023-09-07T00:28:58;8.23;;;4.60;;
29824;SDS011;16713;52.916;12.834;2023-09-07T00:31:25;5.80;;;4.13;;
29824;SDS011;16713;52.916;12.834;2023-09-07T00:33:51;5.50;;;4.90;;
29824;SDS011;16713;52.916;12.834;2023-09-07T00:36:18;6.00;;;4.80;;
29824;SDS011;16713;52.916;12.834;2023-09-07T00:38:44;6.85;;;4.63;;
29824;SDS011;16713;52.916;12.834;2023-09-07T00:41:11;5.63;;;4.32;;
29824;SDS011;16713;52.916;12.834;2023-09-07T00:43:39;6.55;;;4.75;;
29824;SDS011;16713;52.916;12.834;2023-09-07T00:46:07;6.13;;;4.68;;
29824;SDS011;16713;52.916;12.834;2023-09-07T00:48:35;7.28;;;4.60;;
29824;SDS011;16713;52.916;12.834;2023-09-07T00:51:01;5.95;;;4.90;;
29824;SDS011;16713;52.916;12.834;2023-09-07T00:53:28;4.95;;;4.45;;
29824;SDS011;16713;52.916;12.834;2023-09-07T00:55:55;4.85;;;4.35;;
29824;SDS011;16713;52.916;12.834;2023-09-07T00:58:22;7.25;;;4.95;;
29824;SDS011;16713;52.916;12.834;2023-09-07T01:00:49;9.40;;;4.60;;
29824;SDS011;16713;52.916;12.834;2023-09-07T01:03:16;8.13;;;5.50;;
29824;SDS011;16713;52.916;12.834;2023-09-07T01:08:25;4.80;;;4.38;;
29824;SDS011;16713;52.916;12.834;2023-09-07T01:10:55;5.57;;;5.05;;
29824;SDS011;16713;52.916;12.834;2023-09-07T01:13:22;6.70;;;4.88;;
29824;SDS011;16713;52.916;12.834;2023-09-07T01:15:49;8.45;;;5.95;;
29824;SDS011;16713;52.916;12.834;2023-09-07T01:18:16;5.88;;;5.00;;
29824;SDS011;16713;52.916;12.834;2023-09-07T01:21:03;6.60;;;4.65;;
29824;SDS011;16713;52.916;12.834;2023-09-07T01:23:36;6.80;;;5.57;;
29824;SDS011;16713;52.916;12.834;2023-09-07T01:26:05;5.90;;;4.78;;
29824;SDS011;16713;52.916;12.834;2023-09-07T01:28:33;8.75;;;5.00;;
29824;SDS011;16713;52.916;12.834;2023-09-07T01:31:00;8.40;;;5.10;;
29824;SDS011;16713;52.916;12.834;2023-09-07T01:33:27;6.25;;;5.15;;
29824;SDS011;16713;52.916;12.834;2023-09-07T01:35:54;5.85;;;5.25;;
29824;SDS011;16713;52.916;12.834;2023-09-07T01:38:20;6.28;;;5.68;;
29824;SDS011;16713;52.916;12.834;2023-09-07T01:40:47;8.20;;;5.25;;
29824;SDS011;16713;52.916;12.834;2023-09-07T01:43:13;6.57;;;5.35;;
29824;SDS011;16713;52.916;12.834;2023-09-07T01:45:40;7.57;;;5.90;;
29824;SDS011;16713;52.916;12.834;2023-09-07T01:48:12;8.73;;;6.35;;
29824;SDS011;16713;52.916;12.834;2023-09-07T01:50:40;6.95;;;6.28;;
29824;SDS011;16713;52.916;12.834;2023-09-07T01:53:07;6.53;;;5.63;;
29824;SDS011;16713;52.916;12.834;2023-09-07T01:55:33;6.05;;;5.45;;
29824;SDS011;16713;52.916;12.834;2023-09-07T01:58:00;6.13;;;5.40;;
29824;SDS011;16713;52.916;12.834;2023-09-07T02:00:26;6.85;;;5.13;;
29824;SDS011;16713;52.916;12.834;2023-09-07T02:02:53;6.90;;;6.20;;
29824;SDS011;16713;52.916;12.834;2023-09-07T02:05:19;6.97;;;5.70;;
29824;SDS011;16713;52.916;12.834;2023-09-07T02:07:47;6.72;;;5.55;;
29824;SDS011;16713;52.916;12.834;2023-09-07T02:10:16;6.28;;;5.68;;
29824;SDS011;16713;52.916;12.834;2023-09-07T02:12:42;7.05;;;5.75;;
29824;SDS011;16713;52.916;12.834;2023-09-07T02:15:11;9.80;;;5.68;;
29824;SDS011;16713;52.916;12.834;2023-09-07T02:17:37;5.80;;;5.20;;
29824;SDS011;16713;52.916;12.834;2023-09-07T02:20:04;6.32;;;5.55;;
29824;SDS011;16713;52.916;12.834;2023-09-07T02:22:37;10.70;;;6.47;;
29824;SDS011;16713;52.916;12.834;2023-09-07T02:25:04;6.68;;;5.55;;
29824;SDS011;16713;52.916;12.834;2023-09-07T02:27:32;7.47;;;5.18;;
29824;SDS011;16713;52.916;12.834;2023-09-07T02:29:58;6.35;;;5.65;;
29824;SDS011;16713;52.916;12.834;2023-09-07T02:32:25;9.38;;;5.07;;
29824;SDS011;16713;52.916;12.834;2023-09-07T02:34:52;9.45;;;5.82;;
29824;SDS011;16713;52.916;12.834;2023-09-07T02:37:18;6.35;;;5.03;;
29824;SDS011;16713;52.916;12.834;2023-09-07T02:39:45;7.47;;;6.45;;
29824;SDS011;16713;52.916;12.834;2023-09-07T02:42:11;7.97;;;5.80;;
29824;SDS011;16713;52.916;12.834;2023-09-07T02:44:37;6.57;;;5.95;;
29824;SDS011;16713;52.916;12.834;2023-09-07T02:47:04;11.40;;;5.72;;
29824;SDS011;16713;52.916;12.834;2023-09-07T02:49:30;8.15;;;6.82;;
29824;SDS011;16713;52.916;12.834;2023-09-07T02:51:57;8.40;;;6.35;;
29824;SDS011;16713;52.916;12.834;2023-09-07T02:54:23;10.48;;;6.72;;
29824;SDS011;16713;52.916;12.834;2023-09-07T02:56:50;10.77;;;6.43;;
29824;SDS011;16713;52.916;12.834;2023-09-07T02:59:16;8.75;;;7.15;;
29824;SDS011;16713;52.916;12.834;2023-09-07T03:01:43;8.85;;;6.90;;
29824;SDS011;16713;52.916;12.834;2023-09-07T03:04:10;8.32;;;6.90;;
29824;SDS011;16713;52.916;12.834;2023-09-07T03:06:36;7.40;;;6.68;;
29824;SDS011;16713;52.916;12.834;2023-09-07T03:09:03;8.05;;;6.30;;
29824;SDS011;16713;52.916;12.834;2023-09-07T03:11:35;10.68;;;6.82;;
29824;SDS011;16713;52.916;12.834;2023-09-07T03:14:01;7.88;;;6.75;;
29824;SDS011;16713;52.916;12.834;2023-09-07T03:16:28;16.85;;;8.75;;
29824;SDS011;16713;52.916;12.834;2023-09-07T03:18:56;8.43;;;6.97;;
29824;SDS011;16713;52.916;12.834;2023-09-07T03:21:23;8.32;;;6.38;;
29824;SDS011;16713;52.916;12.834;2023-09-07T03:23:59;9.38;;;7.07;;
29824;SDS011;16713;52.916;12.834;2023-09-07T03:26:25;12.05;;;7.65;;
29824;SDS011;16713;52.916;12.834;2023-09-07T03:28:52;8.15;;;6.57;;
29824;SDS011;16713;52.916;12.834;2023-09-07T03:31:19;8.30;;;7.13;;
29824;SDS011;16713;52.916;12.834;2023-09-07T03:33:45;8.82;;;7.50;;
29824;SDS011;16713;52.916;12.834;2023-09-07T03:36:12;9.90;;;7.70;;
29824;SDS011;16713;52.916;12.834;2023-09-07T03:38:41;9.35;;;7.88;;
29824;SDS011;16713;52.916;12.834;2023-09-07T03:41:09;15.25;;;11.40;;
29824;SDS011;16713;52.916;12.834;2023-09-07T03:43:35;10.85;;;8.80;;
29824;SDS011;16713;52.916;12.834;2023-09-07T03:46:02;9.05;;;7.60;;
29824;SDS011;16713;52.916;12.834;2023-09-07T03:48:29;9.98;;;7.70;;
29824;SDS011;16713;52.916;12.834;2023-09-07T03:50:56;8.13;;;7.30;;
29824;SDS011;16713;52.916;12.834;2023-09-07T03:53:22;11.15;;;7.60;;
29824;SDS011;16713;52.916;12.834;2023-09-07T03:55:48;12.13;;;7.38;;
29824;SDS011;16713;52.916;12.834;2023-09-07T03:58:15;8.05;;;6.43;;
29824;SDS011;16713;52.916;12.834;2023-09-07T04:00:41;7.72;;;7.00;;
29824;SDS011;16713;52.916;12.834;2023-09-07T04:03:08;8.38;;;7.15;;
29824;SDS011;16713;52.916;12.834;2023-09-07T04:05:38;8.25;;;6.93;;
29824;SDS011;16713;52.916;12.834;2023-09-07T04:08:05;8.85;;;7.95;;
29824;SDS011;16713;52.916;12.834;2023-09-07T04:10:32;8.32;;;7.10;;
29824;SDS011;16713;52.916;12.834;2023-09-07T04:12:59;8.75;;;7.13;;
29824;SDS011;16713;52.916;12.834;2023-09-07T04:15:25;8.77;;;7.88;;
29824;SDS011;16713;52.916;12.834;2023-09-07T04:17:52;13.98;;;11.20;;
29824;SDS011;16713;52.916;12.834;2023-09-07T04:20:21;10.75;;;8.68;;
29824;SDS011;16713;52.916;12.834;2023-09-07T04:22:47;10.20;;;8.02;;
29824;SDS011;16713;52.916;12.834;2023-09-07T04:25:14;9.05;;;7.80;;
29824;SDS011;16713;52.916;12.834;2023-09-07T04:27:40;9.38;;;8.30;;
29824;SDS011;16713;52.916;12.834;2023-09-07T04:30:07;9.70;;;8.70;;
29824;SDS011;16713;52.916;12.834;2023-09-07T04:32:34;12.20;;;8.25;;
29824;SDS011;16713;52.916;12.834;2023-09-07T04:35:00;9.38;;;7.80;;
29824;SDS011;16713;52.916;12.834;2023-09-07T04:37:27;9.07;;;8.00;;
29824;SDS011;16713;52.916;12.834;2023-09-07T04:39:54;10.10;;;8.85;;
29824;SDS011;16713;52.916;12.834;2023-09-07T04:42:21;11.70;;;8.00;;
29824;SDS011;16713;52.916;12.834;2023-09-07T04:44:48;10.15;;;8.57;;
29824;SDS011;16713;52.916;12.834;2023-09-07T04:47:14;8.73;;;7.80;;
29824;SDS011;16713;52.916;12.834;2023-09-07T04:49:48;10.38;;;8.55;;
29824;SDS011;16713;52.916;12.834;2023-09-07T04:52:16;10.23;;;8.27;;
29824;SDS011;16713;52.916;12.834;2023-09-07T04:54:43;9.00;;;7.45;;
29824;SDS011;16713;52.916;12.834;2023-09-07T04:57:11;8.68;;;7.40;;
29824;SDS011;16713;52.916;12.834;2023-09-07T04:59:38;9.45;;;7.72;;
29824;SDS011;16713;52.916;12.834;2023-09-07T05:02:04;8.07;;;7.28;;
29824;SDS011;16713;52.916;12.834;2023-09-07T05:04:31;10.35;;;8.15;;
29824;SDS011;16713;52.916;12.834;2023-09-07T05:06:57;11.32;;;8.75;;
29824;SDS011;16713;52.916;12.834;2023-09-07T05:09:24;9.75;;;8.32;;
29824;SDS011;16713;52.916;12.834;2023-09-07T05:11:51;8.20;;;7.32;;
29824;SDS011;16713;52.916;12.834;2023-09-07T05:14:18;10.00;;;8.57;;
29824;SDS011;16713;52.916;12.834;2023-09-07T05:16:45;9.18;;;7.78;;
29824;SDS011;16713;52.916;12.834;2023-09-07T05:19:12;11.00;;;8.02;;
29824;SDS011;16713;52.916;12.834;2023-09-07T05:21:38;15.35;;;8.43;;
29824;SDS011;16713;52.916;12.834;2023-09-07T05:24:05;11.50;;;8.40;;
29824;SDS011;16713;52.916;12.834;2023-09-07T05:26:31;11.05;;;8.70;;
29824;SDS011;16713;52.916;12.834;2023-09-07T05:28:58;10.15;;;7.93;;
29824;SDS011;16713;52.916;12.834;2023-09-07T05:31:24;12.63;;;8.38;;
29824;SDS011;16713;52.916;12.834;2023-09-07T05:33:51;12.80;;;8.95;;
29824;SDS011;16713;52.916;12.834;2023-09-07T05:36:20;11.70;;;8.35;;
29824;SDS011;16713;52.916;12.834;2023-09-07T05:38:47;12.63;;;9.20;;
29824;SDS011;16713;52.916;12.834;2023-09-07T05:41:13;9.30;;;8.40;;
29824;SDS011;16713;52.916;12.834;2023-09-07T05:43:40;10.98;;;8.80;;
29824;SDS011;16713;52.916;12.834;2023-09-07T05:46:06;9.00;;;8.05;;
29824;SDS011;16713;52.916;12.834;2023-09-07T05:48:33;9.60;;;8.32;;
29824;SDS011;16713;52.916;12.834;2023-09-07T05:51:00;9.35;;;8.35;;
29824;SDS011;16713;52.916;12.834;2023-09-07T05:53:26;9.75;;;8.75;;
29824;SDS011;16713;52.916;12.834;2023-09-07T05:55:53;10.95;;;8.80;;
29824;SDS011;16713;52.916;12.834;2023-09-07T05:58:19;10.93;;;8.25;;
29824;SDS011;16713;52.916;12.834;2023-09-07T06:00:46;10.38;;;8.85;;
29824;SDS011;16713;52.916;12.834;2023-09-07T06:03:12;12.73;;;8.63;;
29824;SDS011;16713;52.916;12.834;2023-09-07T06:05:39;9.65;;;7.70;;
29824;SDS011;16713;52.916;12.834;2023-09-07T06:08:06;9.55;;;8.55;;
29824;SDS011;16713;52.916;12.834;2023-09-07T06:10:32;13.27;;;9.07;;
29824;SDS011;16713;52.916;12.834;2023-09-07T06:12:59;11.10;;;8.82;;
29824;SDS011;16713;52.916;12.834;2023-09-07T06:15:27;11.35;;;9.23;;
29824;SDS011;16713;52.916;12.834;2023-09-07T06:17:55;11.73;;;8.52;;
29824;SDS011;16713;52.916;12.834;2023-09-07T06:20:22;9.27;;;8.38;;
29824;SDS011;16713;52.916;12.834;2023-09-07T06:22:48;10.13;;;8.63;;
29824;SDS011;16713;52.916;12.834;2023-09-07T06:25:15;10.68;;;8.73;;
29824;SDS011;16713;52.916;12.834;2023-09-07T06:27:42;12.88;;;8.95;;
29824;SDS011;16713;52.916;12.834;2023-09-07T06:30:09;9.90;;;7.88;;
29824;SDS011;16713;52.916;12.834;2023-09-07T06:32:36;9.80;;;8.80;;
29824;SDS011;16713;52.916;12.834;2023-09-07T06:35:03;9.38;;;8.40;;
29824;SDS011;16713;52.916;12.834;2023-09-07T06:37:30;11.73;;;9.20;;
29824;SDS011;16713;52.916;12.834;2023-09-07T06:39:56;13.38;;;8.80;;
29824;SDS011;16713;52.916;12.834;2023-09-07T06:42:23;11.65;;;8.30;;
29824;SDS011;16713;52.916;12.834;2023-09-07T06:44:49;14.15;;;9.02;;
29824;SDS011;16713;52.916;12.834;2023-09-07T06:47:17;11.77;;;8.90;;
29824;SDS011;16713;52.916;12.834;2023-09-07T06:49:44;8.70;;;7.78;;
29824;SDS011;16713;52.916;12.834;2023-09-07T06:52:10;10.15;;;7.43;;
29824;SDS011;16713;52.916;12.834;2023-09-07T06:54:37;12.10;;;8.23;;
29824;SDS011;16713;52.916;12.834;2023-09-07T06:57:08;9.57;;;8.50;;
29824;SDS011;16713;52.916;12.834;2023-09-07T06:59:35;9.00;;;7.65;;
29824;SDS011;16713;52.916;12.834;2023-09-07T07:02:01;11.90;;;8.10;;
29824;SDS011;16713;52.916;12.834;2023-09-07T07:04:31;9.63;;;7.50;;
29824;SDS011;16713;52.916;12.834;2023-09-07T07:06:58;8.23;;;7.25;;
29824;SDS011;16713;52.916;12.834;2023-09-07T07:09:24;9.23;;;7.80;;
29824;SDS011;16713;52.916;12.834;2023-09-07T07:11:50;9.70;;;7.28;;
29824;SDS011;16713;52.916;12.834;2023-09-07T07:14:17;9.35;;;7.63;;
29824;SDS011;16713;52.916;12.834;2023-09-07T07:16:43;7.72;;;6.57;;
29824;SDS011;16713;52.916;12.834;2023-09-07T07:19:10;10.68;;;7.55;;
29824;SDS011;16713;52.916;12.834;2023-09-07T07:21:36;7.68;;;6.72;;
29824;SDS011;16713;52.916;12.834;2023-09-07T07:24:03;7.00;;;6.32;;
29824;SDS011;16713;52.916;12.834;2023-09-07T07:26:33;8.10;;;6.13;;
29824;SDS011;16713;52.916;12.834;2023-09-07T07:28:59;12.10;;;7.38;;
29824;SDS011;16713;52.916;12.834;2023-09-07T07:31:26;11.50;;;6.55;;
29824;SDS011;16713;52.916;12.834;2023-09-07T07:33:53;8.75;;;6.97;;
29824;SDS011;16713;52.916;12.834;2023-09-07T07:36:19;10.43;;;6.35;;
29824;SDS011;16713;52.916;12.834;2023-09-07T07:38:47;8.07;;;6.07;;
29824;SDS011;16713;52.916;12.834;2023-09-07T07:41:13;7.10;;;5.85;;
29824;SDS011;16713;52.916;12.834;2023-09-07T07:43:40;6.72;;;5.65;;
29824;SDS011;16713;52.916;12.834;2023-09-07T07:46:07;8.80;;;5.85;;
29824;SDS011;16713;52.916;12.834;2023-09-07T07:48:34;7.45;;;5.07;;
29824;SDS011;16713;52.916;12.834;2023-09-07T07:51:04;7.05;;;5.40;;
29824;SDS011;16713;52.916;12.834;2023-09-07T07:53:35;12.35;;;6.80;;
29824;SDS011;16713;52.916;12.834;2023-09-07T07:56:02;6.20;;;5.60;;
29824;SDS011;16713;52.916;12.834;2023-09-07T07:58:29;8.60;;;5.13;;
29824;SDS011;16713;52.916;12.834;2023-09-07T08:00:55;8.00;;;5.82;;
29824;SDS011;16713;52.916;12.834;2023-09-07T08:03:24;6.07;;;5.25;;
29824;SDS011;16713;52.916;12.834;2023-09-07T08:05:51;7.95;;;5.60;;
29824;SDS011;16713;52.916;12.834;2023-09-07T08:08:17;6.53;;;4.97;;
29824;SDS011;16713;52.916;12.834;2023-09-07T08:10:44;5.20;;;4.70;;
29824;SDS011;16713;52.916;12.834;2023-09-07T08:13:12;6.55;;;5.30;;
29824;SDS011;16713;52.916;12.834;2023-09-07T08:15:39;8.10;;;5.45;;
29824;SDS011;16713;52.916;12.834;2023-09-07T08:18:06;7.88;;;5.65;;
29824;SDS011;16713;52.916;12.834;2023-09-07T08:20:33;7.63;;;5.60;;
29824;SDS011;16713;52.916;12.834;2023-09-07T08:22:59;6.57;;;4.40;;
29824;SDS011;16713;52.916;12.834;2023-09-07T08:25:29;7.53;;;5.43;;
29824;SDS011;16713;52.916;12.834;2023-09-07T08:27:56;6.95;;;5.32;;
29824;SDS011;16713;52.916;12.834;2023-09-07T08:30:25;9.82;;;5.28;;
29824;SDS011;16713;52.916;12.834;2023-09-07T08:32:52;9.77;;;5.78;;
29824;SDS011;16713;52.916;12.834;2023-09-07T08:35:19;6.78;;;5.70;;
29824;SDS011;16713;52.916;12.834;2023-09-07T08:37:45;7.22;;;5.28;;
29824;SDS011;16713;52.916;12.834;2023-09-07T08:40:12;7.45;;;4.65;;
29824;SDS011;16713;52.916;12.834;2023-09-07T08:42:38;6.28;;;4.53;;
29824;SDS011;16713;52.916;12.834;2023-09-07T08:45:06;5.22;;;4.70;;
29824;SDS011;16713;52.916;12.834;2023-09-07T08:47:35;7.65;;;5.20;;
29824;SDS011;16713;52.916;12.834;2023-09-07T08:50:06;8.05;;;4.78;;
29824;SDS011;16713;52.916;12.834;2023-09-07T08:52:34;6.93;;;5.05;;
29824;SDS011;16713;52.916;12.834;2023-09-07T08:55:01;6.20;;;4.85;;
29824;SDS011;16713;52.916;12.834;2023-09-07T08:57:31;7.72;;;5.53;;
29824;SDS011;16713;52.916;12.834;2023-09-07T08:59:58;7.40;;;5.40;;
29824;SDS011;16713;52.916;12.834;2023-09-07T09:02:25;6.93;;;5.05;;
29824;SDS011;16713;52.916;12.834;2023-09-07T09:04:52;6.00;;;4.75;;
29824;SDS011;16713;52.916;12.834;2023-09-07T09:07:19;8.60;;;4.75;;
29824;SDS011;16713;52.916;12.834;2023-09-07T09:09:48;7.55;;;4.78;;
29824;SDS011;16713;52.916;12.834;2023-09-07T09:12:16;5.60;;;4.50;;
29824;SDS011;16713;52.916;12.834;2023-09-07T09:14:43;6.63;;;4.22;;
29824;SDS011;16713;52.916;12.834;2023-09-07T09:17:13;6.78;;;4.78;;
29824;SDS011;16713;52.916;12.834;2023-09-07T09:19:41;5.00;;;4.40;;
29824;SDS011;16713;52.916;12.834;2023-09-07T09:22:08;5.28;;;4.28;;
29824;SDS011;16713;52.916;12.834;2023-09-07T09:24:35;7.20;;;4.75;;
29824;SDS011;16713;52.916;12.834;2023-09-07T09:27:02;6.22;;;4.70;;
29824;SDS011;16713;52.916;12.834;2023-09-07T09:29:36;6.72;;;4.53;;
29824;SDS011;16713;52.916;12.834;2023-09-07T09:32:04;6.70;;;4.30;;
29824;SDS011;16713;52.916;12.834;2023-09-07T09:34:32;6.55;;;4.55;;
29824;SDS011;16713;52.916;12.834;2023-09-07T09:37:03;4.68;;;4.20;;
29824;SDS011;16713;52.916;12.834;2023-09-07T09:39:30;5.47;;;4.70;;
29824;SDS011;16713;52.916;12.834;2023-09-07T09:41:57;9.00;;;5.00;;
29824;SDS011;16713;52.916;12.834;2023-09-07T09:44:23;5.80;;;4.60;;
29824;SDS011;16713;52.916;12.834;2023-09-07T09:46:53;6.50;;;4.70;;
29824;SDS011;16713;52.916;12.834;2023-09-07T09:49:21;5.15;;;4.53;;
29824;SDS011;16713;52.916;12.834;2023-09-07T09:51:49;4.68;;;4.07;;
29824;SDS011;16713;52.916;12.834;2023-09-07T09:54:20;6.32;;;4.78;;
29824;SDS011;16713;52.916;12.834;2023-09-07T09:56:47;5.78;;;4.50;;
29824;SDS011;16713;52.916;12.834;2023-09-07T09:59:13;8.90;;;4.70;;
29824;SDS011;16713;52.916;12.834;2023-09-07T10:01:43;6.88;;;5.10;;
29824;SDS011;16713;52.916;12.834;2023-09-07T10:04:14;6.68;;;4.55;;
29824;SDS011;16713;52.916;12.834;2023-09-07T10:06:50;6.38;;;4.82;;
29824;SDS011;16713;52.916;12.834;2023-09-07T10:09:28;9.10;;;6.32;;
29824;SDS011;16713;52.916;12.834;2023-09-07T10:11:57;6.85;;;5.00;;
29824;SDS011;16713;52.916;12.834;2023-09-07T10:14:25;7.45;;;4.95;;
29824;SDS011;16713;52.916;12.834;2023-09-07T10:16:53;6.35;;;4.82;;
29824;SDS011;16713;52.916;12.834;2023-09-07T10:19:23;11.60;;;5.47;;
29824;SDS011;16713;52.916;12.834;2023-09-07T10:21:52;39.58;;;8.32;;
29824;SDS011;16713;52.916;12.834;2023-09-07T10:24:23;10.32;;;5.13;;
29824;SDS011;16713;52.916;12.834;2023-09-07T10:26:58;9.37;;;5.47;;
29824;SDS011;16713;52.916;12.834;2023-09-07T10:29:25;14.15;;;5.40;;
29824;SDS011;16713;52.916;12.834;2023-09-07T10:31:53;15.88;;;7.57;;
29824;SDS011;16713;52.916;12.834;2023-09-07T10:34:20;6.47;;;4.93;;
29824;SDS011;16713;52.916;12.834;2023-09-07T10:36:48;6.93;;;4.55;;
29824;SDS011;16713;52.916;12.834;2023-09-07T10:39:21;6.68;;;4.95;;
29824;SDS011;16713;52.916;12.834;2023-09-07T10:41:48;6.78;;;5.05;;
29824;SDS011;16713;52.916;12.834;2023-09-07T10:44:14;8.50;;;4.82;;
29824;SDS011;16713;52.916;12.834;2023-09-07T10:46:41;6.28;;;4.50;;
29824;SDS011;16713;52.916;12.834;2023-09-07T10:49:08;6.32;;;4.95;;
29824;SDS011;16713;52.916;12.834;2023-09-07T10:51:41;8.55;;;4.97;;
29824;SDS011;16713;52.916;12.834;2023-09-07T10:54:16;6.75;;;4.90;;
29824;SDS011;16713;52.916;12.834;2023-09-07T10:56:44;8.98;;;4.57;;
29824;SDS011;16713;52.916;12.834;2023-09-07T10:59:15;8.45;;;4.05;;
29824;SDS011;16713;52.916;12.834;2023-09-07T11:01:44;5.13;;;3.63;;
29824;SDS011;16713;52.916;12.834;2023-09-07T11:04:12;6.50;;;4.75;;
29824;SDS011;16713;52.916;12.834;2023-09-07T11:06:39;5.28;;;4.45;;
29824;SDS011;16713;52.916;12.834;2023-09-07T11:09:08;5.25;;;4.22;;
29824;SDS011;16713;52.916;12.834;2023-09-07T11:11:37;5.00;;;4.07;;
29824;SDS011;16713;52.916;12.834;2023-09-07T11:14:03;4.72;;;4.00;;
29824;SDS011;16713;52.916;12.834;2023-09-07T11:16:33;8.40;;;4.65;;
29824;SDS011;16713;52.916;12.834;2023-09-07T11:19:04;6.25;;;5.15;;
29824;SDS011;16713;52.916;12.834;2023-09-07T11:21:32;5.82;;;4.32;;
29824;SDS011;16713;52.916;12.834;2023-09-07T11:24:00;11.07;;;4.63;;
29824;SDS011;16713;52.916;12.834;2023-09-07T11:26:27;8.10;;;4.82;;
29824;SDS011;16713;52.916;12.834;2023-09-07T11:28:54;7.20;;;4.97;;
29824;SDS011;16713;52.916;12.834;2023-09-07T11:31:23;6.18;;;4.72;;
29824;SDS011;16713;52.916;12.834;2023-09-07T11:33:49;8.23;;;5.22;;
29824;SDS011;16713;52.916;12.834;2023-09-07T11:36:16;7.43;;;4.47;;
29824;SDS011;16713;52.916;12.834;2023-09-07T11:38:43;7.43;;;5.25;;
29824;SDS011;16713;52.916;12.834;2023-09-07T11:41:10;6.90;;;4.90;;
29824;SDS011;16713;52.916;12.834;2023-09-07T11:43:37;11.23;;;4.65;;
29824;SDS011;16713;52.916;12.834;2023-09-07T11:46:05;5.97;;;4.00;;
29824;SDS011;16713;52.916;12.834;2023-09-07T11:48:35;5.32;;;4.60;;
29824;SDS011;16713;52.916;12.834;2023-09-07T11:51:02;5.45;;;4.40;;
29824;SDS011;16713;52.916;12.834;2023-09-07T11:53:28;6.05;;;4.32;;
29824;SDS011;16713;52.916;12.834;2023-09-07T11:55:56;5.07;;;3.65;;
29824;SDS011;16713;52.916;12.834;2023-09-07T11:58:24;4.95;;;3.72;;
29824;SDS011;16713;52.916;12.834;2023-09-07T12:00:55;3.80;;;3.40;;
29824;SDS011;16713;52.916;12.834;2023-09-07T12:03:22;6.28;;;3.97;;
29824;SDS011;16713;52.916;12.834;2023-09-07T12:05:49;5.30;;;4.05;;
29824;SDS011;16713;52.916;12.834;2023-09-07T12:08:15;9.40;;;4.63;;
29824;SDS011;16713;52.916;12.834;2023-09-07T12:10:42;4.85;;;3.70;;
29824;SDS011;16713;52.916;12.834;2023-09-07T12:13:08;4.82;;;3.35;;
29824;SDS011;16713;52.916;12.834;2023-09-07T12:15:34;8.45;;;3.90;;
29824;SDS011;16713;52.916;12.834;2023-09-07T12:18:01;4.38;;;3.38;;
29824;SDS011;16713;52.916;12.834;2023-09-07T12:20:28;3.65;;;2.92;;
29824;SDS011;16713;52.916;12.834;2023-09-07T12:22:55;5.25;;;3.97;;
29824;SDS011;16713;52.916;12.834;2023-09-07T12:25:22;4.53;;;3.55;;
29824;SDS011;16713;52.916;12.834;2023-09-07T12:27:48;4.53;;;3.03;;
29824;SDS011;16713;52.916;12.834;2023-09-07T12:30:20;4.45;;;3.63;;
29824;SDS011;16713;52.916;12.834;2023-09-07T12:32:49;5.78;;;3.58;;
29824;SDS011;16713;52.916;12.834;2023-09-07T12:35:17;4.72;;;3.92;;
29824;SDS011;16713;52.916;12.834;2023-09-07T12:37:43;8.95;;;3.63;;
29824;SDS011;16713;52.916;12.834;2023-09-07T12:40:10;6.03;;;3.60;;
29824;SDS011;16713;52.916;12.834;2023-09-07T12:42:43;4.20;;;3.80;;
29824;SDS011;16713;52.916;12.834;2023-09-07T12:45:11;5.88;;;4.47;;
29824;SDS011;16713;52.916;12.834;2023-09-07T12:47:38;7.38;;;4.00;;
29824;SDS011;16713;52.916;12.834;2023-09-07T12:50:06;4.90;;;3.67;;
29824;SDS011;16713;52.916;12.834;2023-09-07T12:52:33;5.50;;;3.58;;
29824;SDS011;16713;52.916;12.834;2023-09-07T12:55:04;3.83;;;3.43;;
29824;SDS011;16713;52.916;12.834;2023-09-07T12:57:32;5.47;;;4.00;;
29824;SDS011;16713;52.916;12.834;2023-09-07T12:59:59;5.57;;;4.30;;
29824;SDS011;16713;52.916;12.834;2023-09-07T13:02:26;7.25;;;5.00;;
29824;SDS011;16713;52.916;12.834;2023-09-07T13:04:53;6.45;;;4.80;;
29824;SDS011;16713;52.916;12.834;2023-09-07T13:07:21;5.07;;;3.95;;
29824;SDS011;16713;52.916;12.834;2023-09-07T13:09:48;6.05;;;4.07;;
29824;SDS011;16713;52.916;12.834;2023-09-07T13:12:15;6.25;;;4.85;;
29824;SDS011;16713;52.916;12.834;2023-09-07T13:14:42;4.35;;;3.95;;
29824;SDS011;16713;52.916;12.834;2023-09-07T13:17:12;5.15;;;3.72;;
29824;SDS011;16713;52.916;12.834;2023-09-07T13:19:42;4.05;;;3.45;;
29824;SDS011;16713;52.916;12.834;2023-09-07T13:22:09;6.88;;;4.75;;
29824;SDS011;16713;52.916;12.834;2023-09-07T13:24:36;5.97;;;4.30;;
29824;SDS011;16713;52.916;12.834;2023-09-07T13:27:03;4.88;;;3.72;;
29824;SDS011;16713;52.916;12.834;2023-09-07T13:29:30;6.28;;;4.75;;
29824;SDS011;16713;52.916;12.834;2023-09-07T13:31:58;9.07;;;5.00;;
29824;SDS011;16713;52.916;12.834;2023-09-07T13:34:25;7.15;;;4.43;;
29824;SDS011;16713;52.916;12.834;2023-09-07T13:36:52;6.50;;;4.82;;
29824;SDS011;16713;52.916;12.834;2023-09-07T13:39:19;4.28;;;3.55;;
29824;SDS011;16713;52.916;12.834;2023-09-07T13:41:46;6.45;;;4.53;;
29824;SDS011;16713;52.916;12.834;2023-09-07T13:44:13;4.72;;;4.18;;
29824;SDS011;16713;52.916;12.834;2023-09-07T13:46:40;7.07;;;4.97;;
29824;SDS011;16713;52.916;12.834;2023-09-07T13:49:08;8.68;;;4.75;;
29824;SDS011;16713;52.916;12.834;2023-09-07T13:51:34;5.00;;;3.95;;
29824;SDS011;16713;52.916;12.834;2023-09-07T13:54:04;4.68;;;3.60;;
29824;SDS011;16713;52.916;12.834;2023-09-07T13:56:32;6.63;;;4.45;;
29824;SDS011;16713;52.916;12.834;2023-09-07T13:58:59;6.45;;;4.10;;
29824;SDS011;16713;52.916;12.834;2023-09-07T14:01:26;4.93;;;4.18;;
29824;SDS011;16713;52.916;12.834;2023-09-07T14:03:52;7.55;;;3.97;;
29824;SDS011;16713;52.916;12.834;2023-09-07T14:06:19;5.75;;;3.95;;
29824;SDS011;16713;52.916;12.834;2023-09-07T14:08:48;6.30;;;4.53;;
29824;SDS011;16713;52.916;12.834;2023-09-07T14:11:15;4.68;;;3.95;;
29824;SDS011;16713;52.916;12.834;2023-09-07T14:13:41;4.60;;;3.65;;
29824;SDS011;16713;52.916;12.834;2023-09-07T14:16:08;5.13;;;3.95;;
29824;SDS011;16713;52.916;12.834;2023-09-07T14:18:36;4.95;;;4.25;;
29824;SDS011;16713;52.916;12.834;2023-09-07T14:21:03;6.10;;;4.15;;
29824;SDS011;16713;52.916;12.834;2023-09-07T14:23:29;4.93;;;4.22;;
29824;SDS011;16713;52.916;12.834;2023-09-07T14:25:57;5.78;;;4.25;;
29824;SDS011;16713;52.916;12.834;2023-09-07T14:28:25;5.13;;;3.80;;
29824;SDS011;16713;52.916;12.834;2023-09-07T14:30:52;6.47;;;3.85;;
29824;SDS011;16713;52.916;12.834;2023-09-07T14:33:20;7.45;;;3.70;;
29824;SDS011;16713;52.916;12.834;2023-09-07T14:35:47;5.53;;;3.95;;